Time;durP1;ratioP1;P1;durP2;ratioP2;P2;SDS_P1;SDS_P2;PMS_P1;PMS_P2;Temp;Humidity;BMP_temperature;BMP_pressure;BME280_temperature;BME280_humidity;BME280_pressure;Samples;Min_cycle;Max_cycle;Signal;HPM_P1;HPM_P2
2023/06/14 00:01:58;;;;;;;6.55;4.25;;;;;;;17.29;47.61;98796.69;5045932;28;20060;-68
2023/06/14 00:04:25;;;;;;;5.78;3.97;;;;;;;17.27;48.08;98794.16;5045443;28;20063;-68
2023/06/14 00:06:52;;;;;;;5.25;3.78;;;;;;;17.06;48.49;98792.53;5045917;28;20037;-67
2023/06/14 00:09:19;;;;;;;4.20;3.40;;;;;;;17.15;47.97;98783.69;5045922;28;20069;-68
2023/06/14 00:11:46;;;;;;;10.43;4.03;;;;;;;16.87;47.98;98746.03;5045343;28;20095;-68
2023/06/14 00:14:12;;;;;;;5.57;3.83;;;;;;;17.10;48.32;98788.59;5044480;28;20083;-68
2023/06/14 00:16:42;;;;;;;7.90;4.43;;;;;;;17.07;48.36;98792.41;5045284;28;20059;-68
2023/06/14 00:19:10;;;;;;;7.60;3.60;;;;;;;17.07;48.48;98796.91;5044470;28;20301;-68
2023/06/14 00:21:37;;;;;;;8.23;4.00;;;;;;;17.06;48.25;98797.91;5045749;28;20088;-69
2023/06/14 00:24:05;;;;;;;5.82;3.95;;;;;;;17.06;47.93;98797.91;5045827;28;20049;-68
2023/06/14 00:26:31;;;;;;;5.88;4.28;;;;;;;16.86;48.78;98803.22;5045690;28;20045;-68
2023/06/14 00:28:58;;;;;;;5.18;4.10;;;;;;;16.87;48.63;98802.22;5044941;28;20041;-68
2023/06/14 00:31:25;;;;;;;5.38;3.67;;;;;;;16.82;48.72;98795.59;5045475;28;20301;-68
2023/06/14 00:33:53;;;;;;;4.38;3.85;;;;;;;16.73;48.81;98799.94;5044332;28;20041;-68
2023/06/14 00:36:20;;;;;;;7.28;4.03;;;;;;;16.74;48.71;98793.63;5044259;28;20084;-68
2023/06/14 00:38:46;;;;;;;5.05;4.03;;;;;;;16.68;48.76;98797.69;5044929;28;20108;-68
2023/06/14 00:41:13;;;;;;;4.50;3.78;;;;;;;16.63;49.53;98799.03;5045226;28;20053;-68
2023/06/14 00:43:40;;;;;;;7.32;3.50;;;;;;;16.65;49.29;98794.41;5045615;28;20051;-68
2023/06/14 00:46:06;;;;;;;8.05;4.18;;;;;;;16.61;49.55;98788.47;5045032;28;20320;-68
2023/06/14 00:48:34;;;;;;;8.82;4.88;;;;;;;16.64;49.56;98788.19;5045599;28;20099;-69
2023/06/14 00:51:03;;;;;;;4.90;4.10;;;;;;;16.66;48.90;98788.09;5045253;28;20042;-69
2023/06/14 00:53:33;;;;;;;6.35;4.05;;;;;;;16.61;49.03;98785.78;5045507;28;20289;-68
2023/06/14 00:56:01;;;;;;;4.30;3.50;;;;;;;16.73;49.26;98786.56;5044908;28;20071;-68
2023/06/14 00:58:28;;;;;;;4.90;3.67;;;;;;;16.68;49.41;98783.47;5044908;28;20037;-68
2023/06/14 01:00:55;;;;;;;5.28;3.28;;;;;;;16.73;49.00;98783.88;5045466;28;20289;-68
2023/06/14 01:03:22;;;;;;;4.72;4.03;;;;;;;16.78;48.41;98770.94;5045061;28;20049;-68
2023/06/14 01:05:50;;;;;;;5.15;4.55;;;;;;;16.73;49.15;98775.88;5045135;28;20107;-68
2023/06/14 01:08:27;;;;;;;5.72;3.90;;;;;;;16.68;48.99;98775.44;5044829;28;20100;-68
2023/06/14 01:11:01;;;;;;;5.50;3.78;;;;;;;16.60;49.42;98775.22;5046492;28;20099;-68
2023/06/14 01:13:33;;;;;;;4.55;3.70;;;;;;;16.52;49.44;98775.06;5048774;28;20100;-68
2023/06/14 01:16:01;;;;;;;6.53;3.97;;;;;;;16.49;49.49;98780.69;5047556;28;20045;-68
2023/06/14 01:18:29;;;;;;;5.50;3.67;;;;;;;16.57;49.52;98770.16;5048929;28;20041;-68
2023/06/14 01:20:57;;;;;;;4.88;3.53;;;;;;;16.57;49.33;98770.16;5048851;28;20037;-69
2023/06/14 01:23:32;;;;;;;6.18;4.25;;;;;;;16.47;50.21;98769.28;5047340;28;20056;-69
2023/06/14 01:26:03;;;;;;;7.15;4.28;;;;;;;16.44;49.80;98767.72;5048234;28;20037;-68
2023/06/14 01:28:31;;;;;;;5.70;4.05;;;;;;;16.29;49.65;98755.72;5048728;28;20056;-69
2023/06/14 01:31:03;;;;;;;5.60;4.43;;;;;;;16.39;49.59;98769.13;5048701;28;20065;-69
2023/06/14 01:33:34;;;;;;;6.68;4.55;;;;;;;16.47;49.82;98764.78;5048149;28;20051;-68
2023/06/14 01:36:02;;;;;;;5.45;4.47;;;;;;;16.44;50.02;98762.38;5048591;28;20041;-68
2023/06/14 01:38:31;;;;;;;7.35;4.28;;;;;;;16.48;49.78;98768.31;5047821;28;20119;-68
2023/06/14 01:41:01;;;;;;;4.78;4.20;;;;;;;16.34;50.27;98759.66;5048468;28;20053;-68
2023/06/14 01:43:30;;;;;;;6.35;4.38;;;;;;;16.44;50.23;98764.22;5048359;28;20099;-69
2023/06/14 01:45:59;;;;;;;6.32;5.22;;;;;;;16.27;49.94;98739.81;5048360;28;20049;-69
2023/06/14 01:48:26;;;;;;;5.88;4.60;;;;;;;16.41;49.78;98762.66;5048355;28;20305;-68
2023/06/14 01:50:53;;;;;;;5.80;3.90;;;;;;;16.45;50.02;98769.41;5047759;28;20053;-68
2023/06/14 01:53:20;;;;;;;5.25;4.00;;;;;;;16.32;50.65;98763.47;5047715;28;20037;-68
2023/06/14 01:55:48;;;;;;;5.28;4.10;;;;;;;16.44;50.00;98762.38;5047663;28;20041;-68
2023/06/14 01:58:15;;;;;;;4.97;3.72;;;;;;;15.99;50.13;98701.28;5048178;28;20045;-68
2023/06/14 02:00:43;;;;;;;5.80;4.20;;;;;;;16.39;50.02;98764.63;5047865;28;20052;-68
2023/06/14 02:03:11;;;;;;;5.78;5.18;;;;;;;16.23;50.72;98757.09;5047995;28;20065;-69
2023/06/14 02:05:39;;;;;;;7.10;4.40;;;;;;;16.16;50.61;98761.28;5047749;28;20293;-69
2023/06/14 02:08:06;;;;;;;4.53;3.72;;;;;;;16.18;49.99;98759.31;5046597;28;20095;-68
2023/06/14 02:10:32;;;;;;;6.13;4.28;;;;;;;16.17;50.34;98754.97;5047389;28;20045;-68
2023/06/14 02:13:00;;;;;;;5.28;3.80;;;;;;;16.27;50.17;98761.19;5047642;28;20056;-69
2023/06/14 02:15:33;;;;;;;4.32;3.65;;;;;;;16.30;50.32;98755.56;5047580;28;20192;-68
2023/06/14 02:18:00;;;;;;;6.40;3.80;;;;;;;16.28;50.13;98760.22;5047763;28;20092;-69
2023/06/14 02:20:27;;;;;;;5.13;3.65;;;;;;;16.29;50.14;98769.06;5047215;28;20087;-68
2023/06/14 02:22:54;;;;;;;4.82;3.80;;;;;;;13.71;49.82;98340.31;5047245;28;20197;-68
2023/06/14 02:25:21;;;;;;;4.60;3.63;;;;;;;16.31;49.98;98765.28;5047119;28;20099;-68
2023/06/14 02:27:47;;;;;;;4.60;4.03;;;;;;;16.26;50.30;98755.97;5047029;28;20045;-68
2023/06/14 02:30:16;;;;;;;7.22;4.15;;;;;;;16.18;50.32;98756.66;5047005;28;20049;-68
2023/06/14 02:32:43;;;;;;;4.80;3.85;;;;;;;16.17;50.40;98767.47;5047517;28;20050;-68
2023/06/14 02:35:10;;;;;;;4.65;3.80;;;;;;;16.18;50.24;98775.38;5047180;28;20109;-68
2023/06/14 02:37:37;;;;;;;5.35;3.65;;;;;;;16.11;50.57;98773.34;5046739;28;20037;-68
2023/06/14 02:40:05;;;;;;;8.45;4.25;;;;;;;16.06;50.15;98779.09;5047051;28;20115;-68
2023/06/14 02:42:32;;;;;;;4.82;4.03;;;;;;;16.00;50.46;98782.31;5047208;28;20343;-68
2023/06/14 02:44:59;;;;;;;5.90;4.00;;;;;;;16.00;50.53;98782.31;5046685;28;20324;-68
2023/06/14 02:47:27;;;;;;;4.95;3.90;;;;;;;16.06;50.66;98784.44;5046950;28;20041;-68
2023/06/14 02:49:54;;;;;;;5.85;3.85;;;;;;;15.91;50.46;98777.75;5046904;28;20367;-68
2023/06/14 02:52:21;;;;;;;7.43;4.50;;;;;;;15.92;50.62;98779.44;5046543;28;20037;-68
2023/06/14 02:54:48;;;;;;;5.70;4.32;;;;;;;16.02;50.31;98785.69;5047076;28;20060;-68
2023/06/14 02:57:15;;;;;;;4.25;3.33;;;;;;;16.03;50.19;98779.38;5046526;28;20045;-69
2023/06/14 02:59:41;;;;;;;7.45;3.95;;;;;;;15.98;51.17;98784.25;5046484;28;20045;-68
2023/06/14 03:02:08;;;;;;;7.38;4.50;;;;;;;15.98;50.61;98781.59;5046559;28;20045;-68
2023/06/14 03:04:38;;;;;;;4.50;3.85;;;;;;;16.01;50.55;98784.00;5046913;28;20048;-68
2023/06/14 03:07:08;;;;;;;7.15;4.43;;;;;;;15.87;50.94;98776.31;5046623;28;20240;-68
2023/06/14 03:09:37;;;;;;;6.60;3.47;;;;;;;15.92;50.91;98784.78;5045423;28;20041;-67
2023/06/14 03:12:06;;;;;;;5.95;3.60;;;;;;;15.67;51.05;98754.00;5046496;28;20290;-68
2023/06/14 03:14:33;;;;;;;4.38;3.53;;;;;;;15.84;50.96;98782.78;5046190;28;20045;-67
2023/06/14 03:17:00;;;;;;;5.22;3.83;;;;;;;15.83;51.48;98788.25;5046263;28;20045;-68
2023/06/14 03:19:27;;;;;;;5.53;3.83;;;;;;;15.83;51.09;98793.59;5046624;28;20042;-68
2023/06/14 03:21:56;;;;;;;6.32;4.00;;;;;;;15.89;51.01;98793.06;5045132;28;20037;-68
2023/06/14 03:24:23;;;;;;;4.75;3.72;;;;;;;15.89;51.11;98791.25;5045158;28;20056;-67
2023/06/14 03:26:50;;;;;;;6.40;3.67;;;;;;;15.88;51.04;98789.56;5046176;28;20049;-68
2023/06/14 03:29:17;;;;;;;6.20;4.13;;;;;;;15.80;51.19;98794.72;5046388;28;20053;-67
2023/06/14 03:31:58;;;;;;;6.18;4.63;;;;;;;15.70;51.59;98797.31;5045841;28;20069;-68
2023/06/14 03:34:25;;;;;;;5.43;3.70;;;;;;;15.78;51.33;98801.16;5045440;28;20071;-68
2023/06/14 03:36:52;;;;;;;4.43;3.60;;;;;;;15.79;51.12;98800.19;5045805;28;20049;-67
2023/06/14 03:39:20;;;;;;;5.70;3.42;;;;;;;15.78;51.67;98802.00;5045557;28;20064;-68
2023/06/14 03:41:47;;;;;;;7.80;3.70;;;;;;;15.79;52.31;98808.19;5045932;28;20332;-67
2023/06/14 03:44:16;;;;;;;5.35;4.32;;;;;;;15.77;51.98;98815.50;5046122;28;20045;-67
2023/06/14 03:46:43;;;;;;;5.30;4.18;;;;;;;15.71;51.96;98817.72;5045659;28;20037;-67
2023/06/14 03:49:10;;;;;;;5.47;4.20;;;;;;;15.37;51.84;98765.41;5044784;28;20104;-68
2023/06/14 03:51:37;;;;;;;6.00;4.10;;;;;;;15.67;51.84;98831.47;5046107;28;20041;-68
2023/06/14 03:54:04;;;;;;;7.43;4.47;;;;;;;15.67;52.54;98832.31;5045812;28;20038;-68
2023/06/14 03:56:32;;;;;;;5.57;4.30;;;;;;;15.65;51.94;98836.94;5045548;28;20045;-68
2023/06/14 03:58:59;;;;;;;7.05;4.18;;;;;;;15.65;52.33;98844.09;5044589;28;20045;-68
2023/06/14 04:01:27;;;;;;;5.07;3.72;;;;;;;15.64;52.50;98840.53;5045470;28;20095;-68
2023/06/14 04:03:53;;;;;;;4.82;3.65;;;;;;;15.62;52.18;98842.50;5045347;28;20049;-68
2023/06/14 04:06:20;;;;;;;5.82;4.50;;;;;;;15.58;52.26;98845.56;5045657;28;20056;-68
2023/06/14 04:08:49;;;;;;;6.03;4.18;;;;;;;15.65;52.44;98847.63;5045930;28;20056;-68
2023/06/14 04:11:16;;;;;;;5.70;3.88;;;;;;;15.67;52.35;98851.00;5045672;28;20042;-68
2023/06/14 04:13:45;;;;;;;4.90;4.38;;;;;;;15.64;51.87;98855.72;5045354;28;20075;-68
2023/06/14 04:16:12;;;;;;;5.95;4.13;;;;;;;15.64;52.12;98853.06;5045566;28;20041;-68
2023/06/14 04:18:39;;;;;;;6.00;4.05;;;;;;;15.67;52.26;98858.16;5045542;28;20045;-68
2023/06/14 04:21:05;;;;;;;5.20;4.25;;;;;;;15.67;52.33;98864.38;5044417;28;20052;-68
2023/06/14 04:23:32;;;;;;;5.97;3.83;;;;;;;15.65;51.98;98862.78;5045456;28;20037;-68
2023/06/14 04:26:02;;;;;;;4.78;3.92;;;;;;;15.67;52.47;98861.69;5045774;28;20108;-68
2023/06/14 04:28:29;;;;;;;5.18;4.38;;;;;;;15.63;52.67;98867.38;5044301;28;20048;-69
2023/06/14 04:31:01;;;;;;;7.35;4.13;;;;;;;15.61;52.31;98862.16;5045491;28;20053;-68
2023/06/14 04:33:28;;;;;;;5.60;4.80;;;;;;;15.62;51.91;98871.88;5045602;28;20049;-68
2023/06/14 04:35:56;;;;;;;4.68;3.92;;;;;;;15.68;52.11;98873.22;5045059;28;20041;-68
2023/06/14 04:38:25;;;;;;;5.68;3.80;;;;;;;15.71;51.66;98872.97;5045021;28;20065;-68
2023/06/14 04:40:52;;;;;;;5.63;3.83;;;;;;;15.66;51.61;98877.84;5044699;28;20053;-68
2023/06/14 04:43:24;;;;;;;8.07;4.55;;;;;;;15.49;51.86;98835.63;5044985;28;20059;-69
2023/06/14 04:45:51;;;;;;;5.63;4.13;;;;;;;15.73;52.10;98875.50;5046738;28;20227;-68
2023/06/14 04:48:20;;;;;;;8.95;4.25;;;;;;;15.70;51.97;98885.47;5048089;28;20048;-68
2023/06/14 04:50:47;;;;;;;5.40;3.75;;;;;;;15.70;51.79;98887.31;5049329;28;20116;-68
2023/06/14 04:53:13;;;;;;;4.90;3.85;;;;;;;15.75;51.74;98878.91;5049896;28;20107;-68
2023/06/14 04:55:44;;;;;;;5.28;4.10;;;;;;;15.78;51.93;98887.50;5049290;28;20045;-68
2023/06/14 04:58:12;;;;;;;7.50;4.45;;;;;;;15.87;51.47;98888.56;5048647;28;20044;-68
2023/06/14 05:00:39;;;;;;;5.55;4.10;;;;;;;15.91;52.09;98890.00;5048964;28;20055;-68
2023/06/14 05:03:06;;;;;;;7.25;4.30;;;;;;;15.81;51.98;98891.75;5048676;28;20052;-69
2023/06/14 05:05:35;;;;;;;5.75;3.72;;;;;;;15.70;51.54;98885.47;5048582;28;20068;-68
2023/06/14 05:08:01;;;;;;;6.28;4.15;;;;;;;15.76;51.16;98888.63;5049141;28;20045;-68
2023/06/14 05:10:28;;;;;;;9.10;4.47;;;;;;;15.86;51.55;98889.53;5049118;28;20228;-68
2023/06/14 05:12:55;;;;;;;4.95;3.88;;;;;;;15.93;52.07;98888.03;5048543;28;20213;-68
2023/06/14 05:15:25;;;;;;;6.22;4.55;;;;;;;15.99;51.75;98887.53;5048972;28;20057;-68
2023/06/14 05:17:55;;;;;;;7.10;4.32;;;;;;;16.04;51.37;98887.97;5048478;28;20041;-68
2023/06/14 05:20:22;;;;;;;5.40;4.10;;;;;;;15.86;51.02;98886.88;5048265;28;20041;-68
2023/06/14 05:22:51;;;;;;;6.55;3.97;;;;;;;15.82;50.99;98896.09;5048206;28;20201;-68
2023/06/14 05:25:18;;;;;;;6.40;4.15;;;;;;;15.94;51.26;98887.06;5047340;28;20167;-68
2023/06/14 05:27:45;;;;;;;5.55;3.80;;;;;;;15.97;50.17;98889.47;5048672;28;20048;-68
2023/06/14 05:30:13;;;;;;;5.68;4.05;;;;;;;16.03;50.14;98892.47;5048344;28;20049;-68
2023/06/14 05:32:40;;;;;;;6.63;4.93;;;;;;;13.08;50.20;98400.47;5048076;28;20182;-68
2023/06/14 05:35:07;;;;;;;5.90;3.55;;;;;;;16.17;50.49;98898.47;5047692;28;20061;-68
2023/06/14 05:37:34;;;;;;;5.97;4.15;;;;;;;16.09;49.43;98900.94;5047910;28;20049;-68
2023/06/14 05:40:05;;;;;;;6.60;4.20;;;;;;;16.10;49.67;98898.16;5046752;28;20257;-68
2023/06/14 05:42:31;;;;;;;5.57;4.03;;;;;;;15.96;49.25;98898.47;5048024;28;20052;-68
2023/06/14 05:44:58;;;;;;;6.60;4.00;;;;;;;16.14;49.58;98898.72;5046799;28;20053;-68
2023/06/14 05:47:25;;;;;;;4.47;3.58;;;;;;;16.23;49.60;98900.63;5048219;28;20064;-68
2023/06/14 05:49:52;;;;;;;4.65;4.00;;;;;;;16.34;49.47;98900.56;5047103;28;20293;-69
2023/06/14 05:52:19;;;;;;;4.82;4.00;;;;;;;16.36;48.66;98893.25;5047694;28;20107;-69
2023/06/14 05:54:46;;;;;;;5.82;3.97;;;;;;;16.40;49.07;98893.81;5048174;28;20357;-69
2023/06/14 05:57:14;;;;;;;5.57;4.15;;;;;;;16.40;49.40;98908.03;5046524;28;20087;-69
2023/06/14 05:59:40;;;;;;;7.75;4.05;;;;;;;16.45;49.43;98900.47;5046650;28;20049;-69
2023/06/14 06:02:07;;;;;;;6.75;4.05;;;;;;;16.39;49.34;98908.19;5048011;28;20108;-69
2023/06/14 06:04:34;;;;;;;6.70;3.80;;;;;;;15.91;49.29;98812.50;5048143;28;20213;-69
2023/06/14 06:07:01;;;;;;;7.13;4.38;;;;;;;16.54;49.16;98910.38;5047404;28;20289;-68
2023/06/14 06:09:28;;;;;;;10.98;4.97;;;;;;;16.60;49.48;98909.00;5047377;28;20061;-69
2023/06/14 06:11:55;;;;;;;6.00;4.50;;;;;;;16.64;49.13;98910.41;5047406;28;20284;-68
2023/06/14 06:14:23;;;;;;;6.45;4.63;;;;;;;16.64;49.90;98907.75;5047317;28;20045;-69
2023/06/14 06:16:50;;;;;;;8.13;4.03;;;;;;;16.66;49.57;98905.81;5047242;28;20037;-69
2023/06/14 06:19:16;;;;;;;9.38;4.90;;;;;;;16.49;50.25;98891.19;5047099;28;20041;-69
2023/06/14 06:21:43;;;;;;;5.55;4.05;;;;;;;16.71;50.08;98918.78;5047113;28;20071;-69
2023/06/14 06:24:10;;;;;;;7.88;4.78;;;;;;;16.78;49.66;98911.94;5047004;28;20340;-69
2023/06/14 06:26:38;;;;;;;6.43;3.95;;;;;;;16.82;49.48;98929.41;5047577;28;20049;-69
2023/06/14 06:29:05;;;;;;;5.32;4.20;;;;;;;16.86;49.15;98920.13;5047548;28;20049;-69
2023/06/14 06:31:34;;;;;;;5.47;3.70;;;;;;;16.59;49.17;98883.22;5045916;28;20103;-69
2023/06/14 06:34:00;;;;;;;7.20;4.07;;;;;;;16.92;49.00;98922.25;5046880;28;20037;-69
2023/06/14 06:36:27;;;;;;;4.78;3.90;;;;;;;16.98;49.13;98924.41;5046077;28;20298;-69
2023/06/14 06:38:54;;;;;;;7.65;4.38;;;;;;;16.99;49.98;98926.94;5046778;28;20309;-70
2023/06/14 06:41:21;;;;;;;4.95;3.83;;;;;;;16.98;49.14;98922.56;5046657;28;20053;-70
2023/06/14 06:43:47;;;;;;;6.57;3.85;;;;;;;17.02;48.71;98925.81;5046834;28;20045;-69
2023/06/14 06:46:14;;;;;;;8.45;4.30;;;;;;;17.09;48.48;98929.66;5047009;28;20300;-69
2023/06/14 06:48:42;;;;;;;5.28;4.15;;;;;;;17.08;48.59;98927.09;5047264;28;20289;-69
2023/06/14 06:51:09;;;;;;;7.97;3.97;;;;;;;17.08;48.50;98919.94;5046641;28;20045;-69
2023/06/14 06:53:36;;;;;;;6.65;3.95;;;;;;;16.93;47.88;98903.38;5046830;28;20294;-69
2023/06/14 06:56:02;;;;;;;6.00;4.13;;;;;;;17.18;48.28;98928.00;5046459;28;20297;-70
2023/06/14 06:58:29;;;;;;;4.55;3.60;;;;;;;17.25;47.73;98927.34;5046957;28;20052;-69
2023/06/14 07:00:56;;;;;;;10.48;4.10;;;;;;;17.35;47.23;98929.19;5046911;28;20070;-69
2023/06/14 07:03:23;;;;;;;5.63;3.78;;;;;;;16.60;47.19;98801.97;5046787;28;20039;-69
2023/06/14 07:05:51;;;;;;;5.40;3.67;;;;;;;17.47;46.79;98922.72;5046853;28;20048;-69
2023/06/14 07:08:18;;;;;;;6.05;3.90;;;;;;;17.51;47.02;98929.50;5046362;28;20092;-69
2023/06/14 07:10:45;;;;;;;4.53;3.67;;;;;;;17.57;46.72;98928.94;5046426;28;20122;-69
2023/06/14 07:13:11;;;;;;;5.55;3.88;;;;;;;17.73;46.57;98936.47;5046241;28;20103;-69
2023/06/14 07:15:38;;;;;;;7.32;3.65;;;;;;;17.83;46.01;98935.50;5046584;28;20037;-69
2023/06/14 07:18:06;;;;;;;6.90;4.07;;;;;;;17.68;45.95;98914.59;5046354;28;20049;-69
2023/06/14 07:20:33;;;;;;;5.43;4.10;;;;;;;18.01;45.94;98938.31;5046091;28;20051;-69
2023/06/14 07:23:01;;;;;;;8.55;5.05;;;;;;;18.31;45.94;98936.44;5045778;28;20041;-69
2023/06/14 07:25:28;;;;;;;4.65;4.05;;;;;;;18.50;46.01;98941.78;5046200;28;20324;-69
2023/06/14 07:27:54;;;;;;;5.72;3.63;;;;;;;18.73;45.62;98937.78;5046443;28;20045;-69
2023/06/14 07:30:25;;;;;;;6.80;3.60;;;;;;;18.88;45.24;98943.53;5046397;28;20037;-69
2023/06/14 07:32:52;;;;;;;7.15;3.90;;;;;;;19.06;44.74;98948.97;5044925;28;20048;-69
2023/06/14 07:35:19;;;;;;;4.55;3.80;;;;;;;19.25;44.24;98946.19;5045827;28;20088;-69
2023/06/14 07:37:46;;;;;;;5.60;3.53;;;;;;;19.27;44.11;98938.81;5046017;28;20241;-69
2023/06/14 07:40:15;;;;;;;5.75;3.65;;;;;;;19.23;43.87;98940.13;5045712;28;20046;-70
2023/06/14 07:42:42;;;;;;;4.32;3.47;;;;;;;19.22;43.58;98939.28;5045725;28;20037;-70
2023/06/14 07:45:09;;;;;;;4.60;3.78;;;;;;;19.02;44.44;98940.38;5046081;28;20045;-69
2023/06/14 07:47:36;;;;;;;11.05;6.00;;;;;;;18.66;44.51;98885.69;5046199;28;20333;-69
2023/06/14 07:50:02;;;;;;;6.75;5.00;;;;;;;19.00;44.21;98954.94;5044530;28;20083;-70
2023/06/14 07:52:29;;;;;;;8.30;4.75;;;;;;;18.98;43.95;98927.38;5045507;28;20048;-69
2023/06/14 07:54:56;;;;;;;6.28;4.38;;;;;;;19.20;44.17;98953.84;5045548;28;20090;-69
2023/06/14 07:57:24;;;;;;;9.88;6.13;;;;;;;19.30;44.22;98943.91;5046168;28;20336;-69
2023/06/14 07:59:51;;;;;;;8.50;5.80;;;;;;;19.40;43.96;98949.25;5045979;28;20038;-69
2023/06/14 08:02:18;;;;;;;7.30;4.65;;;;;;;19.49;43.46;98951.03;5045469;28;20041;-69
2023/06/14 08:04:45;;;;;;;4.82;3.75;;;;;;;19.42;42.72;98947.25;5045481;28;20045;-69
2023/06/14 08:07:12;;;;;;;5.05;3.88;;;;;;;19.65;42.73;98953.06;5045969;28;20037;-69
2023/06/14 08:09:38;;;;;;;5.10;3.78;;;;;;;19.72;42.48;98948.78;5045342;28;20054;-69
2023/06/14 08:12:07;;;;;;;6.40;4.03;;;;;;;19.88;42.18;98946.28;5045932;28;20042;-70
2023/06/14 08:14:35;;;;;;;4.70;3.40;;;;;;;20.16;41.55;98950.56;5045309;28;20129;-69
2023/06/14 08:17:02;;;;;;;8.45;4.00;;;;;;;20.30;41.35;98951.03;5045805;28;20293;-69
2023/06/14 08:19:29;;;;;;;8.75;3.72;;;;;;;20.43;40.68;98946.94;5045533;28;20128;-70
2023/06/14 08:21:56;;;;;;;5.10;3.58;;;;;;;20.34;40.10;98949.72;5048248;28;20038;-69
2023/06/14 08:24:24;;;;;;;5.65;3.83;;;;;;;20.01;41.24;98948.56;5049630;28;20061;-69
2023/06/14 08:26:51;;;;;;;5.80;3.70;;;;;;;20.08;41.38;98946.97;5049315;28;20037;-69
2023/06/14 08:29:17;;;;;;;5.40;3.33;;;;;;;20.53;40.95;98948.69;5049486;28;20351;-69
2023/06/14 08:31:46;;;;;;;5.18;3.70;;;;;;;20.58;41.52;98957.97;5049481;28;20041;-70
2023/06/14 08:34:12;;;;;;;5.25;3.92;;;;;;;20.92;41.07;98949.09;5049479;28;20057;-69
2023/06/14 08:36:39;;;;;;;5.13;3.20;;;;;;;20.91;40.84;98950.09;5049028;28;20048;-69
2023/06/14 08:39:08;;;;;;;6.07;3.38;;;;;;;20.81;40.41;98948.38;5049155;28;20053;-70
2023/06/14 08:41:36;;;;;;;6.18;3.17;;;;;;;20.91;40.06;98959.03;5049628;28;20037;-70
2023/06/14 08:44:03;;;;;;;8.05;3.97;;;;;;;20.88;40.18;98956.66;5049341;28;20056;-70
2023/06/14 08:46:33;;;;;;;8.40;4.20;;;;;;;20.71;39.58;98947.63;5049162;28;20053;-69
2023/06/14 08:49:03;;;;;;;6.10;4.07;;;;;;;20.62;39.86;98958.50;5049097;28;20037;-69
2023/06/14 08:51:33;;;;;;;4.22;3.45;;;;;;;20.42;40.17;98956.03;5049045;28;20319;-70
2023/06/14 08:54:01;;;;;;;4.53;3.10;;;;;;;20.45;40.00;98958.41;5049006;28;20033;-69
2023/06/14 08:56:29;;;;;;;5.65;3.25;;;;;;;20.57;39.84;98952.75;5048680;28;20037;-70
2023/06/14 08:58:57;;;;;;;4.10;3.15;;;;;;;20.75;39.57;98961.63;5048613;28;20090;-70
2023/06/14 09:01:24;;;;;;;5.18;3.90;;;;;;;20.78;39.77;98962.16;5049195;28;20372;-70
2023/06/14 09:03:51;;;;;;;5.47;3.78;;;;;;;20.98;39.47;98954.69;5049059;28;20064;-70
2023/06/14 09:06:23;;;;;;;6.50;3.28;;;;;;;21.25;38.56;98961.75;5048882;28;20052;-69
2023/06/14 09:08:50;;;;;;;5.88;3.50;;;;;;;21.43;38.82;98956.28;5048552;28;20045;-69
2023/06/14 09:11:19;;;;;;;7.95;3.38;;;;;;;21.26;38.21;98933.81;5048705;28;20289;-70
2023/06/14 09:13:47;;;;;;;8.15;4.07;;;;;;;21.10;37.49;98888.78;5047576;28;20198;-70
2023/06/14 09:16:13;;;;;;;7.68;3.85;;;;;;;21.50;37.44;98957.31;5048252;28;20206;-70
2023/06/14 09:18:44;;;;;;;5.93;3.92;;;;;;;21.36;37.80;98958.78;5048066;28;20108;-70
2023/06/14 09:21:11;;;;;;;5.75;3.30;;;;;;;21.14;37.61;98943.19;5049090;28;20112;-69
2023/06/14 09:23:40;;;;;;;4.95;4.10;;;;;;;21.15;37.62;98963.75;5048639;28;20060;-70
2023/06/14 09:26:11;;;;;;;6.70;3.75;;;;;;;21.25;37.33;98963.63;5048256;28;20239;-70
2023/06/14 09:28:37;;;;;;;9.27;3.67;;;;;;;21.44;37.63;98953.41;5048682;28;20045;-70
2023/06/14 09:31:05;;;;;;;5.80;3.30;;;;;;;21.69;37.11;98958.88;5048171;28;20064;-70
2023/06/14 09:33:33;;;;;;;5.10;3.70;;;;;;;21.91;36.97;98954.75;5048313;28;20056;-70
2023/06/14 09:35:59;;;;;;;6.63;3.88;;;;;;;21.91;37.07;98943.94;5048521;28;20041;-70
2023/06/14 09:38:26;;;;;;;7.00;3.22;;;;;;;21.95;37.47;98953.41;5047848;28;20068;-70
2023/06/14 09:40:57;;;;;;;4.00;3.03;;;;;;;21.87;37.21;98948.84;5048350;28;20045;-70
2023/06/14 09:43:26;;;;;;;5.05;3.40;;;;;;;21.91;37.12;98949.34;5047053;28;20041;-70
2023/06/14 09:45:55;;;;;;;6.32;3.63;;;;;;;22.25;37.04;98944.66;5048081;28;20068;-70
2023/06/14 09:48:22;;;;;;;4.35;3.47;;;;;;;22.22;36.49;98944.97;5048127;28;20301;-70
2023/06/14 09:50:51;;;;;;;5.43;3.80;;;;;;;21.98;35.28;98926.94;5048385;28;20055;-70
2023/06/14 09:53:22;;;;;;;5.78;3.30;;;;;;;22.04;35.76;98898.44;5048038;28;20063;-70
2023/06/14 09:55:50;;;;;;;3.83;3.13;;;;;;;21.92;35.40;98894.38;5048303;28;20041;-70
2023/06/14 09:58:21;;;;;;;4.70;3.42;;;;;;;21.65;35.75;98833.47;5048189;28;20045;-70
2023/06/14 10:00:51;;;;;;;7.97;3.75;;;;;;;21.96;36.00;98868.75;5047538;28;20041;-70
2023/06/14 10:03:25;;;;;;;7.88;4.40;;;;;;;22.38;35.88;98938.72;5047686;28;20049;-70
2023/06/14 10:05:52;;;;;;;4.78;3.40;;;;;;;22.43;36.20;98947.19;5047936;28;20324;-69
2023/06/14 10:08:25;;;;;;;3.90;2.92;;;;;;;22.31;36.17;98945.81;5047252;28;20328;-68
2023/06/14 10:10:52;;;;;;;4.88;3.42;;;;;;;22.56;35.49;98942.16;5046650;28;20068;-69
2023/06/14 10:13:21;;;;;;;4.63;3.40;;;;;;;22.55;35.67;98936.94;5047903;28;20049;-70
2023/06/14 10:15:56;;;;;;;4.32;3.35;;;;;;;22.48;34.85;98942.13;5047885;28;20057;-70
2023/06/14 10:18:32;;;;;;;5.60;3.33;;;;;;;22.43;35.20;98941.81;5047775;28;20049;-70
2023/06/14 10:21:08;;;;;;;4.88;3.30;;;;;;;22.26;35.11;98935.53;5046761;28;20049;-70
2023/06/14 10:23:42;;;;;;;7.43;3.22;;;;;;;22.09;34.91;98878.03;5047005;28;20087;-70
2023/06/14 10:26:09;;;;;;;4.22;3.03;;;;;;;21.99;35.66;98898.09;5046544;28;20052;-69
2023/06/14 10:28:39;;;;;;;6.30;3.35;;;;;;;21.90;36.33;98929.63;5047000;28;20312;-70
2023/06/14 10:31:07;;;;;;;5.72;3.10;;;;;;;21.76;36.67;98939.16;5046915;28;20042;-70
2023/06/14 10:33:35;;;;;;;5.15;2.83;;;;;;;22.01;34.88;98940.06;5047498;28;20049;-70
2023/06/14 10:36:26;;;;;;;8.10;3.80;;;;;;;21.98;35.26;98942.28;5047067;28;20285;-70
2023/06/14 10:39:08;;;;;;;4.30;3.22;;;;;;;21.94;35.78;98941.75;5045677;28;20057;-70
2023/06/14 10:41:37;;;;;;;4.05;2.97;;;;;;;21.95;35.32;98940.75;5047169;28;20048;-69
2023/06/14 10:44:39;;;;;;;5.93;3.40;;;;;;;21.95;36.92;98938.06;5046137;28;20055;-70
2023/06/14 10:47:08;;;;;;;7.13;3.22;;;;;;;21.91;36.20;98934.00;5027053;28;20057;-69
2023/06/14 10:49:41;;;;;;;9.18;3.70;;;;;;;21.84;35.48;98929.44;5046590;28;20056;-70
2023/06/14 10:52:18;;;;;;;6.85;3.53;;;;;;;21.68;35.68;98930.22;5046721;28;20041;-70
2023/06/14 10:55:04;;;;;;;5.18;3.58;;;;;;;21.73;36.26;98922.47;5045998;28;20384;-70
2023/06/14 10:57:32;;;;;;;5.97;3.42;;;;;;;21.69;36.04;98924.66;5046480;28;20045;-70
2023/06/14 11:00:11;;;;;;;4.72;3.60;;;;;;;21.17;35.96;98870.09;5046646;28;20049;-71
2023/06/14 11:03:26;;;;;;;7.35;3.97;;;;;;;20.83;35.86;98771.31;5046490;28;20193;-70
2023/06/14 11:05:54;;;;;;;4.63;3.33;;;;;;;21.75;36.37;98924.00;4986165;28;20070;-69
2023/06/14 11:08:37;;;;;;;6.13;3.90;;;;;;;21.75;36.22;98923.16;5040306;28;20120;-69
2023/06/14 11:11:07;;;;;;;4.72;3.75;;;;;;;21.88;36.51;98918.16;5046238;28;20045;-70
2023/06/14 11:13:34;;;;;;;4.95;3.22;;;;;;;21.90;36.17;98917.97;5046516;28;20041;-70
2023/06/14 11:16:02;;;;;;;5.88;3.15;;;;;;;21.82;36.18;98921.50;5046803;28;20042;-69
2023/06/14 11:18:29;;;;;;;4.55;3.35;;;;;;;21.82;36.48;98920.66;5046144;28;20121;-69
2023/06/14 11:20:56;;;;;;;6.43;4.38;;;;;;;21.90;35.96;98917.97;5046109;28;20065;-69
2023/06/14 11:23:23;;;;;;;4.07;3.42;;;;;;;21.80;35.28;98923.53;5046133;28;20048;-69
2023/06/14 11:25:54;;;;;;;4.28;3.05;;;;;;;21.76;35.37;98906.81;5046354;28;20099;-69
2023/06/14 11:28:21;;;;;;;4.65;3.35;;;;;;;21.91;35.04;98912.41;5045879;28;20041;-69
2023/06/14 11:30:48;;;;;;;6.82;2.95;;;;;;;22.04;34.98;98920.00;5046428;28;20185;-68
2023/06/14 11:33:19;;;;;;;4.63;3.00;;;;;;;22.30;34.50;98919.84;5046228;28;20057;-69
2023/06/14 11:35:46;;;;;;;6.50;3.47;;;;;;;22.41;33.30;98909.56;5046128;28;20037;-69
2023/06/14 11:38:13;;;;;;;3.63;2.65;;;;;;;22.25;34.11;98906.84;5045944;28;20335;-69
2023/06/14 11:40:40;;;;;;;6.00;3.10;;;;;;;22.25;33.79;98909.56;5045735;28;20278;-70